createdAt,value
2023-01-05T00:01:23.538Z,100
2023-01-05T00:03:50.381Z,100
2023-01-05T00:06:17.234Z,100
2023-01-05T00:08:44.059Z,100
2023-01-05T00:11:10.935Z,100
2023-01-05T00:13:37.739Z,100
2023-01-05T00:16:04.583Z,100
2023-01-05T00:18:29.995Z,100
2023-01-05T00:20:56.953Z,100
2023-01-05T00:23:23.675Z,100
2023-01-05T00:25:50.582Z,100
2023-01-05T00:28:17.366Z,100
2023-01-05T00:30:44.200Z,100
2023-01-05T00:33:11.031Z,100
2023-01-05T00:35:37.947Z,100
2023-01-05T00:38:04.712Z,100
2023-01-05T00:40:31.563Z,100
2023-01-05T00:42:58.470Z,100
2023-01-05T00:45:25.224Z,100
2023-01-05T00:47:52.102Z,100
2023-01-05T00:50:17.496Z,100
2023-01-05T00:52:44.427Z,100
2023-01-05T00:55:11.178Z,100
2023-01-05T00:57:38.015Z,100
2023-01-05T01:00:04.858Z,100
2023-01-05T01:02:31.687Z,100
2023-01-05T01:04:58.557Z,100
2023-01-05T01:07:25.426Z,100
2023-01-05T01:09:52.316Z,100
2023-01-05T01:12:19.109Z,100
2023-01-05T01:14:45.968Z,100
2023-01-05T01:17:12.866Z,100
2023-01-05T01:19:39.565Z,100
2023-01-05T01:22:04.976Z,100
2023-01-05T01:24:31.833Z,100
2023-01-05T01:26:58.738Z,100
2023-01-05T01:31:52.345Z,100
2023-01-05T01:34:19.182Z,100
2023-01-05T01:36:46.061Z,100
2023-01-05T01:39:12.872Z,100
2023-01-05T01:41:39.654Z,100
2023-01-05T01:44:06.588Z,100
2023-01-05T01:46:33.379Z,100
2023-01-05T01:49:00.375Z,100
2023-01-05T01:51:27.027Z,100
2023-01-05T01:53:53.918Z,100
2023-01-05T01:56:19.278Z,100
2023-01-05T01:58:46.109Z,100
2023-01-05T02:01:12.960Z,100
2023-01-05T02:03:39.798Z,100
2023-01-05T02:06:06.674Z,100
2023-01-05T02:08:33.481Z,100
2023-01-05T02:13:27.144Z,100
2023-01-05T02:15:53.989Z,100
2023-01-05T02:18:20.807Z,100
2023-01-05T02:20:47.682Z,100
2023-01-05T02:23:14.502Z,100
2023-01-05T02:25:41.343Z,100
2023-01-05T02:30:33.608Z,100
2023-01-05T02:33:00.468Z,100
2023-01-05T02:35:27.276Z,100
2023-01-05T02:37:54.121Z,100
2023-01-05T02:40:20.959Z,100
2023-01-05T02:42:47.804Z,100
2023-01-05T02:45:14.638Z,100
2023-01-05T02:47:41.439Z,100
2023-01-05T02:50:06.882Z,100
2023-01-05T02:52:33.720Z,100
2023-01-05T02:55:00.625Z,100
2023-01-05T02:57:27.490Z,100
2023-01-05T02:59:54.240Z,100
2023-01-05T03:02:21.090Z,100
2023-01-05T03:07:14.759Z,100
2023-01-05T03:09:41.645Z,100
2023-01-05T03:12:08.437Z,100
2023-01-05T03:14:35.313Z,100
2023-01-05T03:17:02.110Z,100
2023-01-05T03:21:55.791Z,100
2023-01-05T03:24:21.215Z,100
2023-01-05T03:26:48.087Z,100
2023-01-05T03:29:14.922Z,100
2023-01-05T03:31:41.758Z,100
2023-01-05T03:34:08.573Z,100
2023-01-05T03:36:35.415Z,100
2023-01-05T03:39:02.285Z,100
2023-01-05T03:41:29.079Z,100
2023-01-05T03:43:55.984Z,100
2023-01-05T03:46:22.799Z,100
2023-01-05T03:51:16.455Z,100
2023-01-05T03:53:41.907Z,100
2023-01-05T03:56:07.312Z,100
2023-01-05T03:58:34.185Z,100
2023-01-05T04:01:01.022Z,100
2023-01-05T04:03:27.838Z,100
2023-01-05T04:05:54.665Z,100
2023-01-05T04:08:21.533Z,100
2023-01-05T04:10:48.360Z,99.2
2023-01-05T04:13:15.256Z,98.6
2023-01-05T04:15:42.034Z,97.4
2023-01-05T04:18:08.889Z,96.8
2023-01-05T04:20:34.359Z,95.9
2023-01-05T04:22:59.754Z,94.1
2023-01-05T04:25:26.592Z,91.6
2023-01-05T04:27:53.441Z,92.2
2023-01-05T04:30:20.268Z,91.6
2023-01-05T04:32:47.093Z,90.3
2023-01-05T04:35:14.069Z,90
2023-01-05T04:37:40.805Z,86.7
2023-01-05T04:40:07.630Z,84
2023-01-05T04:42:34.526Z,82.4
2023-01-05T04:45:01.314Z,81.9
2023-01-05T04:47:28.139Z,81.8
2023-01-05T04:49:54.985Z,81
2023-01-05T04:54:48.674Z,82.2
2023-01-05T04:57:14.074Z,81.9
2023-01-05T04:59:40.909Z,80.8
2023-01-05T05:02:07.756Z,81
2023-01-05T05:04:34.593Z,79.1
2023-01-05T05:07:01.445Z,78.4
2023-01-05T05:09:28.356Z,77.6
2023-01-05T05:11:55.148Z,75.8
2023-01-05T05:14:21.985Z,74.2
2023-01-05T05:16:48.784Z,74.2
2023-01-05T05:19:15.636Z,72.2
2023-01-05T05:21:42.477Z,72
2023-01-05T05:24:09.310Z,69.5
2023-01-05T05:26:36.177Z,67
2023-01-05T05:29:01.562Z,64.3
2023-01-05T05:31:28.407Z,62.6
2023-01-05T05:33:55.252Z,60
2023-01-05T05:36:22.088Z,57.3
2023-01-05T05:38:48.928Z,55
2023-01-05T05:41:15.769Z,52.9
2023-01-05T05:43:42.645Z,50.4
2023-01-05T05:46:09.440Z,48.8
2023-01-05T05:48:36.277Z,47.6
2023-01-05T05:51:03.140Z,46.4
2023-01-05T05:53:29.999Z,45.5
2023-01-05T05:55:56.789Z,45
2023-01-05T05:58:23.650Z,44.2
2023-01-05T06:03:15.912Z,42.7
2023-01-05T06:05:42.728Z,43.1
2023-01-05T06:08:09.606Z,44
2023-01-05T06:10:36.427Z,44.9
2023-01-05T06:13:03.264Z,45.9
2023-01-05T06:15:30.090Z,47.3
2023-01-05T06:17:56.931Z,50.5
2023-01-05T06:20:23.784Z,53.2
2023-01-05T06:22:50.606Z,58
2023-01-05T06:27:44.376Z,62.4
2023-01-05T06:30:11.139Z,63.2
2023-01-05T06:32:38.143Z,64.4
2023-01-05T06:35:04.777Z,68
2023-01-05T06:37:30.212Z,71.7
2023-01-05T06:39:57.087Z,73.5
2023-01-05T06:42:23.895Z,75.3
2023-01-05T06:44:50.865Z,76.7
2023-01-05T06:47:17.589Z,77.7
2023-01-05T06:49:44.478Z,77.8
2023-01-05T06:52:11.242Z,75.5
2023-01-05T06:54:38.099Z,74.5
2023-01-05T06:57:04.918Z,72.1
2023-01-05T06:59:31.768Z,68.3
2023-01-05T07:04:25.430Z,68
2023-01-05T07:06:52.410Z,66.4
2023-01-05T07:09:17.696Z,66.1
2023-01-05T07:11:44.523Z,65.6
2023-01-05T07:14:11.476Z,65.1
2023-01-05T07:16:38.297Z,65.3
2023-01-05T07:19:05.114Z,64.3
2023-01-05T07:21:32.017Z,62.1
2023-01-05T07:23:58.736Z,61.2
2023-01-05T07:26:25.654Z,59
2023-01-05T07:28:52.437Z,58.2
2023-01-05T07:31:19.254Z,58.3
2023-01-05T07:33:46.223Z,58.4
2023-01-05T07:36:13.036Z,58
2023-01-05T07:38:39.764Z,59.6
2023-01-05T07:41:06.619Z,60.4
2023-01-05T07:43:32.037Z,60.3
2023-01-05T07:45:58.917Z,62
2023-01-05T07:48:25.697Z,63.3
2023-01-05T07:53:19.375Z,67.7
2023-01-05T07:55:46.232Z,68.8
2023-01-05T07:58:13.079Z,70.2
2023-01-05T08:00:39.909Z,70.8
2023-01-05T08:03:06.875Z,71.8
2023-01-05T08:05:33.682Z,72.8
2023-01-05T08:08:00.450Z,75.3
2023-01-05T08:10:27.266Z,72.8
2023-01-05T08:12:54.119Z,73.9
2023-01-05T08:15:19.653Z,74.8
2023-01-05T08:17:46.426Z,76.2
2023-01-05T08:20:13.217Z,75.5
2023-01-05T08:22:40.089Z,76.8
2023-01-05T08:25:06.939Z,77.9
2023-01-05T08:27:33.720Z,76.2
2023-01-05T08:32:27.398Z,81.6
2023-01-05T08:34:54.276Z,81
2023-01-05T08:37:21.173Z,82.9
2023-01-05T08:39:47.917Z,86.4
2023-01-05T08:42:14.761Z,88.6
2023-01-05T08:44:41.652Z,93.4
2023-01-05T08:47:08.510Z,94.6
2023-01-05T08:49:35.263Z,96.5
2023-01-05T08:52:00.680Z,96.9
2023-01-05T08:54:27.570Z,99.6
2023-01-05T08:56:54.099Z,100
2023-01-05T08:59:21.065Z,100
2023-01-05T09:01:47.809Z,98.8
2023-01-05T09:06:41.434Z,99.8
2023-01-05T09:11:35.282Z,99.1
2023-01-05T09:14:00.573Z,96.3
2023-01-05T09:16:25.981Z,97.3
2023-01-05T09:18:52.828Z,99.2
2023-01-05T09:21:19.852Z,98.2
2023-01-05T09:23:46.640Z,99.5
2023-01-05T09:26:13.343Z,100
2023-01-05T09:28:40.180Z,100
2023-01-05T09:31:07.028Z,100
2023-01-05T09:33:33.875Z,100
2023-01-05T09:36:00.704Z,100
2023-01-05T09:38:26.188Z,100
2023-01-05T09:40:53.035Z,100
2023-01-05T09:45:45.494Z,100
2023-01-05T09:48:12.096Z,100
2023-01-05T09:50:38.944Z,100
2023-01-05T09:55:32.628Z,100
2023-01-05T09:57:59.467Z,100
2023-01-05T10:00:26.298Z,100
2023-01-05T10:02:53.140Z,100
2023-01-05T10:05:19.972Z,100
2023-01-05T10:07:46.821Z,100
2023-01-05T10:10:13.658Z,100
2023-01-05T10:12:40.502Z,100
2023-01-05T10:15:07.309Z,100
2023-01-05T10:17:32.768Z,100
2023-01-05T10:19:58.188Z,100
2023-01-05T10:22:25.021Z,100
2023-01-05T10:27:18.698Z,100
2023-01-05T10:29:45.544Z,100
2023-01-05T10:32:12.388Z,100
2023-01-05T10:34:39.221Z,100
2023-01-05T10:37:06.136Z,100
2023-01-05T10:39:33.123Z,100
2023-01-05T10:41:59.746Z,100
2023-01-05T10:44:26.575Z,100
2023-01-05T10:46:53.427Z,100
2023-01-05T10:49:20.255Z,100
2023-01-05T10:51:45.667Z,100
2023-01-05T10:54:12.511Z,100
2023-01-05T10:56:39.369Z,100
2023-01-05T11:01:33.029Z,100
2023-01-05T11:03:58.547Z,100
2023-01-05T11:06:25.286Z,100
2023-01-05T11:11:18.974Z,100
2023-01-05T11:13:45.883Z,100
2023-01-05T11:16:12.633Z,100
2023-01-05T11:18:39.468Z,100
2023-01-05T11:21:04.890Z,100
2023-01-05T11:23:31.714Z,100
2023-01-05T11:25:58.556Z,100
2023-01-05T11:28:25.427Z,100
2023-01-05T11:30:52.257Z,100
2023-01-05T11:33:19.082Z,100
2023-01-05T11:35:45.934Z,100
2023-01-05T11:38:12.755Z,100
2023-01-05T11:40:39.624Z,100
2023-01-05T11:43:06.433Z,100
2023-01-05T11:48:00.131Z,100
2023-01-05T11:50:26.979Z,100
2023-01-05T11:52:53.775Z,100
2023-01-05T11:55:20.582Z,100
2023-01-05T11:57:47.399Z,100
2023-01-05T12:00:12.804Z,100
2023-01-05T12:02:39.653Z,100
2023-01-05T12:05:05.417Z,100
2023-01-05T12:07:30.516Z,100
2023-01-05T12:09:57.358Z,100
2023-01-05T12:12:24.197Z,100
2023-01-05T12:14:51.040Z,100
2023-01-05T12:17:18.003Z,100
2023-01-05T12:19:44.846Z,100
2023-01-05T12:22:11.628Z,100
2023-01-05T12:24:38.510Z,100
2023-01-05T12:27:05.229Z,100
2023-01-05T12:29:32.157Z,100
2023-01-05T12:31:58.987Z,100
2023-01-05T12:34:24.367Z,100
2023-01-05T12:39:18.099Z,100
2023-01-05T12:41:43.473Z,100
2023-01-05T12:44:10.299Z,100
2023-01-05T12:46:37.462Z,100
2023-01-05T12:53:57.747Z,100
2023-01-05T12:56:24.500Z,100
2023-01-05T12:58:51.350Z,100
2023-01-05T13:01:18.168Z,100
2023-01-05T13:03:45.028Z,100
2023-01-05T13:06:11.885Z,100
2023-01-05T13:08:38.672Z,100
2023-01-05T13:11:04.211Z,100
2023-01-05T13:13:30.994Z,100
2023-01-05T13:15:56.373Z,100
2023-01-05T13:18:23.215Z,100
2023-01-05T13:23:16.902Z,100
2023-01-05T13:25:43.735Z,100
2023-01-05T13:28:10.578Z,100
2023-01-05T13:30:37.432Z,100
2023-01-05T13:33:04.257Z,100
2023-01-05T13:35:31.086Z,100
2023-01-05T13:37:57.937Z,100
2023-01-05T13:40:24.779Z,100
2023-01-05T13:45:18.500Z,100
2023-01-05T13:47:43.917Z,100
2023-01-05T13:50:10.716Z,100
2023-01-05T13:52:37.574Z,100
2023-01-05T13:57:29.828Z,100
2023-01-05T13:59:56.770Z,100
2023-01-05T14:02:23.512Z,100
2023-01-05T14:07:17.177Z,100
2023-01-05T14:09:44.029Z,100
2023-01-05T14:14:37.738Z,100
2023-01-05T14:17:04.602Z,100
2023-01-05T14:19:31.365Z,100
2023-01-05T14:21:58.222Z,100
2023-01-05T14:24:25.107Z,100
2023-01-05T14:26:51.895Z,100
2023-01-05T14:29:18.764Z,100
2023-01-05T14:31:44.100Z,100
2023-01-05T14:34:10.914Z,100
2023-01-05T14:36:37.766Z,100
2023-01-05T14:39:04.600Z,100
2023-01-05T14:41:31.446Z,100
2023-01-05T14:43:58.268Z,100
2023-01-05T14:46:25.112Z,100
2023-01-05T14:48:51.960Z,100
2023-01-05T14:51:18.796Z,100
2023-01-05T14:53:45.639Z,100
2023-01-05T14:56:12.476Z,100
2023-01-05T14:58:39.406Z,100
2023-01-05T15:01:04.737Z,100
2023-01-05T15:03:30.159Z,100
2023-01-05T15:05:57.176Z,100
2023-01-05T15:08:23.980Z,100
2023-01-05T15:10:50.860Z,100
2023-01-05T15:13:17.678Z,100
2023-01-05T15:15:44.480Z,100
2023-01-05T15:18:11.183Z,100
2023-01-05T15:20:38.203Z,100
2023-01-05T15:23:05.035Z,100
2023-01-05T15:25:31.783Z,100
2023-01-05T15:27:57.321Z,100
2023-01-05T15:30:22.740Z,100
2023-01-05T15:32:49.556Z,100
2023-01-05T15:35:16.253Z,100
2023-01-05T15:37:43.106Z,100
2023-01-05T15:40:10.052Z,100
2023-01-05T15:42:36.920Z,100
2023-01-05T15:45:03.829Z,100
2023-01-05T15:47:30.685Z,100
2023-01-05T15:49:57.495Z,100
2023-01-05T15:52:24.309Z,100
2023-01-05T15:54:51.160Z,100
2023-01-05T15:59:44.802Z,100
2023-01-05T16:02:11.571Z,100
2023-01-05T16:04:38.476Z,100
2023-01-05T16:09:30.773Z,100
2023-01-05T16:11:56.232Z,100
2023-01-05T16:14:21.616Z,100
2023-01-05T16:19:15.300Z,100
2023-01-05T16:21:42.137Z,100
2023-01-05T16:24:08.984Z,100
2023-01-05T16:26:35.817Z,100
2023-01-05T16:31:29.496Z,100
2023-01-05T16:33:56.152Z,100
2023-01-05T16:36:23.199Z,100
2023-01-05T16:38:50.002Z,100
2023-01-05T16:41:16.777Z,100
2023-01-05T16:43:42.241Z,100
2023-01-05T16:46:09.108Z,100
2023-01-05T16:48:35.955Z,100
2023-01-05T16:51:01.342Z,100
2023-01-05T16:53:28.140Z,100
2023-01-05T16:55:54.956Z,100
2023-01-05T16:58:21.856Z,100
2023-01-05T17:00:48.692Z,100
2023-01-05T17:03:15.526Z,100
2023-01-05T17:05:42.203Z,100
2023-01-05T17:08:08.995Z,100
2023-01-05T17:10:36.075Z,100
2023-01-05T17:13:01.534Z,100
2023-01-05T17:15:26.865Z,100
2023-01-05T17:17:53.692Z,100
2023-01-05T17:20:20.552Z,100
2023-01-05T17:25:14.171Z,100
2023-01-05T17:27:40.925Z,100
2023-01-05T17:30:07.731Z,100
2023-01-05T17:32:34.795Z,100
2023-01-05T17:37:28.449Z,100
2023-01-05T17:39:55.197Z,100
2023-01-05T17:44:48.969Z,100
2023-01-05T17:47:15.596Z,100
2023-01-05T17:49:41.230Z,100
2023-01-05T17:52:08.002Z,100
2023-01-05T17:54:34.856Z,100
2023-01-05T17:57:01.724Z,100
2023-01-05T17:59:27.185Z,100
2023-01-05T18:01:53.959Z,100
2023-01-05T18:04:20.772Z,100
2023-01-05T18:09:14.463Z,100
2023-01-05T18:11:41.315Z,100
2023-01-05T18:14:08.148Z,100
2023-01-05T18:16:35.014Z,100
2023-01-05T18:21:28.697Z,100
2023-01-05T18:23:55.482Z,98.7
2023-01-05T18:26:22.350Z,98.2
2023-01-05T18:31:16.056Z,96.4
2023-01-05T18:33:41.746Z,92.3
2023-01-05T18:36:08.288Z,92.5
2023-01-05T18:38:35.168Z,89.3
2023-01-05T18:43:28.817Z,87.8
2023-01-05T18:45:55.483Z,88
2023-01-05T18:48:22.482Z,85.9
2023-01-05T18:53:16.207Z,83.9
2023-01-05T18:55:43.012Z,82.8
2023-01-05T18:58:09.878Z,86.2
2023-01-05T19:00:36.727Z,82.8
2023-01-05T19:03:03.500Z,82.7
2023-01-05T19:05:28.781Z,78.2
2023-01-05T19:07:55.789Z,76.2
2023-01-05T19:10:22.649Z,74
2023-01-05T19:12:49.399Z,73.8
2023-01-05T19:15:14.830Z,73.3
2023-01-05T19:17:41.759Z,72.2
2023-01-05T19:20:08.417Z,69.4
2023-01-05T19:22:35.409Z,68
2023-01-05T19:25:02.258Z,67
2023-01-05T19:27:28.983Z,67.6
2023-01-05T19:29:55.789Z,67.6
2023-01-05T19:32:22.658Z,66.9
2023-01-05T19:34:49.605Z,69.8
2023-01-05T19:37:16.311Z,69.6
2023-01-05T19:39:41.878Z,70.5
2023-01-05T19:42:07.402Z,70.2
2023-01-05T19:44:34.169Z,70.8
2023-01-05T19:47:01.047Z,69.3
2023-01-05T19:49:27.919Z,67.6
2023-01-05T19:51:54.702Z,66.5
2023-01-05T19:54:21.414Z,65.8
2023-01-05T19:56:48.396Z,64.5
2023-01-05T19:59:15.141Z,64.5
2023-01-05T20:01:42.072Z,64.6
2023-01-05T20:04:08.856Z,65.2
2023-01-05T20:06:34.334Z,65.1
2023-01-05T20:08:59.781Z,65.5
2023-01-05T20:11:26.584Z,67.1
2023-01-05T20:13:53.395Z,67.9
2023-01-05T20:16:20.260Z,68.1
2023-01-05T20:18:47.107Z,67.8
2023-01-05T20:21:13.922Z,67.3
2023-01-05T20:23:40.886Z,67.4
2023-01-05T20:26:07.698Z,69.2
2023-01-05T20:28:34.488Z,71.2
2023-01-05T20:31:01.347Z,74.5
2023-01-05T20:33:28.190Z,76
2023-01-05T20:35:55.054Z,76.1
2023-01-05T20:40:48.520Z,75.9
2023-01-05T20:43:14.129Z,74.7
2023-01-05T20:45:40.794Z,73.8
2023-01-05T20:50:34.544Z,72.2
2023-01-05T20:52:59.988Z,71.9
2023-01-05T20:55:25.405Z,71
2023-01-05T20:57:52.173Z,70.3
2023-01-05T21:00:19.015Z,71
2023-01-05T21:02:45.988Z,70
2023-01-05T21:05:12.817Z,69.1
2023-01-05T21:07:39.675Z,67.4
2023-01-05T21:10:06.614Z,65.5
2023-01-05T21:12:33.211Z,63.1
2023-01-05T21:15:00.273Z,61
2023-01-05T21:17:26.954Z,58.9
2023-01-05T21:19:52.494Z,57.9
2023-01-05T21:22:17.933Z,57.1
2023-01-05T21:24:44.743Z,55.1
2023-01-05T21:27:11.638Z,54.8
2023-01-05T21:29:38.276Z,54.5
2023-01-05T21:32:05.345Z,54.1
2023-01-05T21:34:32.132Z,53.3
2023-01-05T21:36:58.980Z,52.5
2023-01-05T21:39:25.779Z,52.4
2023-01-05T21:41:52.629Z,51.8
2023-01-05T21:49:13.176Z,51.2
2023-01-05T21:51:38.616Z,50.8
2023-01-05T21:54:05.263Z,50.5
2023-01-05T21:56:32.319Z,50.3
2023-01-05T21:58:57.718Z,50.1
2023-01-05T22:01:24.592Z,49.8
2023-01-05T22:03:51.284Z,49.9
2023-01-05T22:06:18.231Z,49.8
2023-01-05T22:08:45.003Z,50.2
2023-01-05T22:11:11.949Z,49.8
2023-01-05T22:13:38.576Z,50.2
2023-01-05T22:16:05.568Z,50.4
2023-01-05T22:18:32.384Z,51
2023-01-05T22:23:25.894Z,51.6
2023-01-05T22:25:52.912Z,51.6
2023-01-05T22:28:19.799Z,50.9
2023-01-05T22:33:13.406Z,49.8
2023-01-05T22:35:38.908Z,49.8
2023-01-05T22:40:32.636Z,49.6
2023-01-05T22:42:57.974Z,49.3
2023-01-05T22:45:24.892Z,48.6
2023-01-05T22:47:51.637Z,49.3
2023-01-05T22:52:45.376Z,48.9
2023-01-05T22:55:12.008Z,48.7
2023-01-05T22:57:39.045Z,47.8
2023-01-05T23:00:05.875Z,47.5
2023-01-05T23:02:32.676Z,47.7
2023-01-05T23:04:59.540Z,47.6
2023-01-05T23:07:26.353Z,47.6
2023-01-05T23:09:53.189Z,46.8
2023-01-05T23:17:13.743Z,46
2023-01-05T23:19:39.160Z,46.1
2023-01-05T23:22:05.960Z,46.3
2023-01-05T23:24:32.910Z,46.5
2023-01-05T23:29:26.536Z,46.2
2023-01-05T23:31:53.372Z,45.6
2023-01-05T23:34:20.196Z,45.7
2023-01-05T23:39:13.877Z,45.3
2023-01-05T23:41:40.674Z,45
2023-01-05T23:46:34.397Z,44.7
2023-01-05T23:51:28.119Z,44.5
2023-01-05T23:53:53.555Z,44.6
